createdAt,value
2022-07-30T00:01:22.713Z,9.07
2022-07-30T00:04:08.261Z,8.85
2022-07-30T00:06:53.543Z,6.55
2022-07-30T00:09:39.396Z,12.93
2022-07-30T00:12:27.811Z,9.20
2022-07-30T00:15:13.095Z,11.80
2022-07-30T00:17:58.643Z,5.75
2022-07-30T00:20:45.665Z,3.75
2022-07-30T00:23:33.656Z,4.28
2022-07-30T00:26:19.142Z,2.33
2022-07-30T00:29:05.777Z,6.45
2022-07-30T00:31:51.232Z,5.13
2022-07-30T00:34:37.067Z,6.10
2022-07-30T00:37:22.366Z,6.28
2022-07-30T00:40:09.301Z,3.72
2022-07-30T00:42:54.913Z,3.35
2022-07-30T00:45:40.475Z,4.82
2022-07-30T00:48:26.219Z,7.82
2022-07-30T00:51:11.979Z,7.63
2022-07-30T00:53:57.625Z,7.30
2022-07-30T00:56:43.261Z,8.77
2022-07-30T00:59:28.727Z,7.88
2022-07-30T01:02:14.206Z,5.50
2022-07-30T01:04:59.925Z,4.90
2022-07-30T01:07:45.483Z,3.20
2022-07-30T01:10:31.302Z,4.85
2022-07-30T01:13:16.551Z,4.32
2022-07-30T01:16:02.422Z,4.55
2022-07-30T01:19:07.550Z,1.10
2022-07-30T01:22:17.751Z,2.65
2022-07-30T01:25:30.959Z,4.07
2022-07-30T01:28:22.800Z,4.00
2022-07-30T01:31:10.781Z,4.30
2022-07-30T01:33:57.812Z,3.90
2022-07-30T01:36:47.033Z,7.60
2022-07-30T01:39:33.787Z,6.72
2022-07-30T01:42:20.919Z,3.55
2022-07-30T01:45:09.108Z,11.57
2022-07-30T01:47:57.592Z,7.03
2022-07-30T01:50:46.734Z,16.80
2022-07-30T01:53:35.869Z,9.40
2022-07-30T01:56:25.141Z,6.13
2022-07-30T01:59:14.087Z,11.35
2022-07-30T02:01:59.856Z,11.32
2022-07-30T02:04:45.546Z,7.65
2022-07-30T02:08:02.043Z,5.07
2022-07-30T02:10:54.083Z,4.43
2022-07-30T02:13:49.257Z,3.95
2022-07-30T02:16:39.238Z,9.23
2022-07-30T02:19:37.764Z,7.07
2022-07-30T02:22:31.673Z,8.68
2022-07-30T02:25:21.810Z,8.52
2022-07-30T02:28:11.912Z,7.95
2022-07-30T02:31:01.105Z,8.32
2022-07-30T02:33:50.898Z,10.13
2022-07-30T02:36:37.667Z,7.70
2022-07-30T02:39:25.715Z,10.25
2022-07-30T02:42:14.938Z,11.45
2022-07-30T02:45:11.082Z,11.07
2022-07-30T02:48:03.910Z,9.70
2022-07-30T02:50:53.745Z,13.02
2022-07-30T02:53:41.013Z,8.90
2022-07-30T02:56:32.515Z,11.02
2022-07-30T02:59:21.924Z,10.55
2022-07-30T03:02:09.463Z,10.52
2022-07-30T03:04:57.461Z,9.43
2022-07-30T03:07:44.759Z,8.60
2022-07-30T03:10:33.144Z,9.80
2022-07-30T03:13:20.598Z,12.90
2022-07-30T03:16:10.512Z,20.80
2022-07-30T03:18:59.342Z,13.82
2022-07-30T03:21:46.939Z,18.25
2022-07-30T03:24:33.662Z,12.43
2022-07-30T03:27:19.652Z,10.90
2022-07-30T03:30:06.703Z,13.30
2022-07-30T03:32:53.524Z,14.13
2022-07-30T03:35:41.488Z,14.57
2022-07-30T03:38:28.233Z,9.00
2022-07-30T03:41:16.233Z,6.78
2022-07-30T03:44:04.924Z,7.60
2022-07-30T03:46:55.212Z,11.52
2022-07-30T03:49:41.251Z,15.10
2022-07-30T03:52:28.958Z,19.60
2022-07-30T03:55:16.892Z,18.85
2022-07-30T03:58:09.567Z,18.77
2022-07-30T04:00:55.212Z,18.73
2022-07-30T04:03:41.325Z,12.65
2022-07-30T04:06:27.056Z,10.55
2022-07-30T04:09:13.262Z,8.48
2022-07-30T04:11:58.864Z,7.72
2022-07-30T04:14:46.592Z,7.40
2022-07-30T04:17:47.040Z,8.45
2022-07-30T04:20:41.701Z,8.65
2022-07-30T04:26:14.902Z,12.02
2022-07-30T04:29:01.684Z,9.10
2022-07-30T04:31:47.711Z,11.02
2022-07-30T04:34:55.415Z,14.88
2022-07-30T04:38:03.809Z,19.40
2022-07-30T04:40:51.292Z,17.17
2022-07-30T04:43:37.198Z,14.90
2022-07-30T04:46:24.525Z,18.88
2022-07-30T04:49:12.757Z,21.13
2022-07-30T04:52:00.383Z,18.02
2022-07-30T04:54:57.849Z,21.15
2022-07-30T04:57:43.818Z,24.90
2022-07-30T05:00:32.536Z,26.50
2022-07-30T05:03:20.526Z,22.83
2022-07-30T05:06:12.309Z,25.98
2022-07-30T05:09:01.881Z,25.33
2022-07-30T05:11:54.610Z,25.98
2022-07-30T05:14:40.125Z,22.05
2022-07-30T05:17:25.771Z,21.17
2022-07-30T05:20:12.893Z,17.05
2022-07-30T05:23:18.438Z,12.93
2022-07-30T05:26:12.756Z,9.70
2022-07-30T05:29:04.080Z,6.32
2022-07-30T05:32:04.301Z,6.75
2022-07-30T05:34:55.040Z,5.72
2022-07-30T05:37:42.199Z,7.15
2022-07-30T05:40:28.312Z,6.88
2022-07-30T05:43:34.161Z,6.85
2022-07-30T05:46:19.545Z,6.75
2022-07-30T05:49:06.646Z,5.15
2022-07-30T05:51:52.322Z,5.43
2022-07-30T05:54:37.678Z,5.25
2022-07-30T05:57:48.889Z,5.95
2022-07-30T06:00:35.677Z,5.90
2022-07-30T06:03:24.690Z,5.20
2022-07-30T06:06:36.026Z,4.63
2022-07-30T06:09:24.317Z,5.70
2022-07-30T06:12:22.339Z,5.88
2022-07-30T06:15:09.416Z,5.35
2022-07-30T06:18:01.694Z,6.07
2022-07-30T06:21:08.147Z,7.93
2022-07-30T06:24:21.164Z,6.63
2022-07-30T06:27:19.347Z,7.68
2022-07-30T06:30:07.885Z,7.75
2022-07-30T06:32:53.428Z,8.30
2022-07-30T06:35:39.391Z,13.35
2022-07-30T06:38:24.940Z,9.82
2022-07-30T06:41:17.291Z,9.00
2022-07-30T06:44:10.384Z,11.63
2022-07-30T06:47:19.454Z,7.88
2022-07-30T06:50:05.591Z,8.73
2022-07-30T06:52:53.836Z,8.07
2022-07-30T06:55:39.914Z,12.65
2022-07-30T06:58:26.366Z,13.95
2022-07-30T07:01:26.040Z,20.58
2022-07-30T07:04:12.882Z,16.05
2022-07-30T07:06:59.788Z,12.82
2022-07-30T07:09:57.772Z,15.57
2022-07-30T07:13:02.953Z,17.60
2022-07-30T07:15:48.776Z,16.63
2022-07-30T07:18:38.539Z,11.65
2022-07-30T07:21:24.661Z,12.00
2022-07-30T07:24:12.799Z,12.50
2022-07-30T07:27:15.950Z,16.52
2022-07-30T07:30:06.421Z,16.80
2022-07-30T07:32:58.658Z,9.32
2022-07-30T07:35:49.368Z,16.75
2022-07-30T07:38:42.640Z,13.40
2022-07-30T07:41:27.909Z,11.13
2022-07-30T07:44:13.567Z,15.35
2022-07-30T07:47:01.994Z,14.85
2022-07-30T07:49:56.064Z,12.38
2022-07-30T07:52:41.693Z,13.85
2022-07-30T07:55:27.476Z,16.55
2022-07-30T07:58:14.686Z,11.52
2022-07-30T08:01:08.422Z,18.65
2022-07-30T08:04:26.532Z,13.35
2022-07-30T08:07:31.991Z,15.07
2022-07-30T08:10:26.916Z,16.58
2022-07-30T08:13:49.243Z,20.58
2022-07-30T08:16:50.585Z,13.63
2022-07-30T08:19:44.795Z,12.85
2022-07-30T08:22:35.990Z,11.73
2022-07-30T08:25:24.479Z,9.88
2022-07-30T08:28:36.213Z,18.02
2022-07-30T08:34:04.607Z,16.65
2022-07-30T08:36:50.301Z,11.77
2022-07-30T08:39:38.710Z,10.73
2022-07-30T08:42:24.484Z,12.80
2022-07-30T08:45:13.883Z,8.52
2022-07-30T08:48:07.444Z,9.57
2022-07-30T08:51:03.624Z,11.38
2022-07-30T08:54:01.765Z,11.50
2022-07-30T08:56:50.072Z,9.25
2022-07-30T09:00:00.143Z,10.02
2022-07-30T09:02:46.179Z,12.77
2022-07-30T09:05:31.810Z,13.05
2022-07-30T09:08:18.704Z,8.82
2022-07-30T09:11:05.353Z,9.70
2022-07-30T09:13:51.239Z,7.65
2022-07-30T09:16:43.112Z,8.65
2022-07-30T09:19:28.415Z,6.95
2022-07-30T09:22:15.192Z,7.68
2022-07-30T09:25:41.085Z,12.98
2022-07-30T09:28:45.404Z,8.98
2022-07-30T09:31:59.723Z,13.80
2022-07-30T09:35:15.253Z,15.13
2022-07-30T09:38:24.029Z,7.95
2022-07-30T09:41:36.306Z,8.10
2022-07-30T09:44:29.809Z,10.85
2022-07-30T09:47:34.559Z,9.45
2022-07-30T09:50:29.966Z,9.52
2022-07-30T09:53:16.615Z,9.05
2022-07-30T09:56:30.128Z,10.88
2022-07-30T09:59:34.824Z,14.35
2022-07-30T10:02:21.395Z,8.75
2022-07-30T10:05:30.828Z,6.65
2022-07-30T10:08:19.027Z,6.38
2022-07-30T10:11:09.727Z,7.45
2022-07-30T10:13:57.446Z,10.68
2022-07-30T10:16:43.212Z,11.50
2022-07-30T10:19:40.048Z,6.47
2022-07-30T10:23:10.008Z,10.57
2022-07-30T10:29:44.954Z,10.77
2022-07-30T10:32:32.094Z,10.38
2022-07-30T10:35:31.114Z,12.13
2022-07-30T10:38:32.432Z,7.93
2022-07-30T10:41:56.238Z,9.88
2022-07-30T10:45:09.476Z,5.20
2022-07-30T10:48:04.928Z,11.85
2022-07-30T10:51:01.697Z,8.35
2022-07-30T10:53:50.047Z,10.63
2022-07-30T10:56:35.863Z,7.03
2022-07-30T10:59:25.963Z,9.68
2022-07-30T11:02:14.273Z,7.18
2022-07-30T11:05:18.700Z,7.72
2022-07-30T11:08:42.901Z,6.28
2022-07-30T11:12:01.677Z,8.13
2022-07-30T11:14:52.587Z,9.60
2022-07-30T11:18:00.868Z,4.40
2022-07-30T11:21:20.777Z,9.68
2022-07-30T11:24:48.951Z,12.18
2022-07-30T11:27:48.464Z,9.93
2022-07-30T11:30:35.266Z,4.93
2022-07-30T11:33:23.220Z,5.95
2022-07-30T11:36:20.977Z,7.43
2022-07-30T11:39:10.341Z,6.93
2022-07-30T11:42:27.925Z,9.95
2022-07-30T11:45:16.871Z,5.68
2022-07-30T11:48:10.446Z,6.47
2022-07-30T11:51:00.722Z,6.32
2022-07-30T11:54:06.388Z,7.07
2022-07-30T11:57:02.141Z,7.45
2022-07-30T11:59:56.619Z,7.50
2022-07-30T12:05:35.251Z,5.20
2022-07-30T12:08:36.170Z,5.22
2022-07-30T12:11:24.387Z,7.68
2022-07-30T12:14:09.908Z,9.05
2022-07-30T12:16:55.526Z,8.18
2022-07-30T12:19:48.155Z,10.07
2022-07-30T12:22:34.782Z,4.15
2022-07-30T12:25:20.799Z,5.88
2022-07-30T12:28:06.690Z,3.05
2022-07-30T12:30:53.380Z,8.18
2022-07-30T12:33:45.443Z,6.82
2022-07-30T12:36:33.716Z,5.32
2022-07-30T12:39:27.342Z,10.23
2022-07-30T12:42:22.203Z,8.85
2022-07-30T12:45:25.259Z,3.42
2022-07-30T12:48:11.897Z,8.10
2022-07-30T12:51:07.841Z,6.18
2022-07-30T12:53:54.204Z,6.55
2022-07-30T12:56:41.161Z,3.05
2022-07-30T12:59:27.410Z,4.82
2022-07-30T13:02:30.354Z,4.93
2022-07-30T13:05:15.944Z,8.73
2022-07-30T13:08:01.591Z,3.45
2022-07-30T13:11:00.863Z,5.47
2022-07-30T13:13:50.760Z,4.60
2022-07-30T13:16:37.004Z,4.97
2022-07-30T13:19:22.600Z,4.80
2022-07-30T13:22:08.705Z,6.20
2022-07-30T13:24:56.213Z,5.50
2022-07-30T13:27:41.602Z,3.65
2022-07-30T13:30:27.167Z,4.40
2022-07-30T13:33:15.334Z,7.50
2022-07-30T13:36:01.005Z,7.93
2022-07-30T13:38:52.800Z,6.68
2022-07-30T13:41:41.715Z,3.30
2022-07-30T13:44:26.995Z,4.07
2022-07-30T13:47:12.512Z,3.85
2022-07-30T13:49:57.960Z,3.42
2022-07-30T13:52:44.015Z,4.28
2022-07-30T13:55:29.992Z,5.88
2022-07-30T13:58:15.816Z,6.30
2022-07-30T14:01:01.678Z,3.83
2022-07-30T14:03:50.623Z,2.97
2022-07-30T14:06:36.351Z,4.03
2022-07-30T14:09:22.257Z,4.65
2022-07-30T14:12:08.243Z,6.57
2022-07-30T14:14:57.103Z,4.00
2022-07-30T14:17:42.922Z,4.30
2022-07-30T14:20:44.541Z,4.80
2022-07-30T14:23:32.440Z,4.15
2022-07-30T14:26:18.007Z,3.45
2022-07-30T14:29:05.880Z,3.67
2022-07-30T14:31:53.929Z,4.07
2022-07-30T14:34:40.556Z,3.25
2022-07-30T14:37:27.461Z,2.65
2022-07-30T14:40:13.651Z,2.63
2022-07-30T14:42:59.610Z,3.75
2022-07-30T14:45:44.890Z,4.93
2022-07-30T14:48:32.462Z,4.68
2022-07-30T14:51:26.024Z,4.45
2022-07-30T14:54:13.040Z,2.42
2022-07-30T14:56:58.848Z,4.07
2022-07-30T14:59:44.595Z,2.28
2022-07-30T15:02:30.520Z,2.78
2022-07-30T15:05:16.156Z,5.95
2022-07-30T15:08:02.583Z,7.43
2022-07-30T15:10:48.599Z,3.28
2022-07-30T15:13:34.021Z,5.10
2022-07-30T15:16:21.285Z,5.68
2022-07-30T15:19:06.920Z,7.28
2022-07-30T15:21:52.448Z,4.53
2022-07-30T15:24:38.075Z,3.90
2022-07-30T15:27:33.650Z,2.75
2022-07-30T15:30:20.039Z,5.38
2022-07-30T15:33:05.632Z,5.03
2022-07-30T15:35:51.693Z,1.67
2022-07-30T15:38:37.952Z,2.63
2022-07-30T15:41:23.712Z,2.65
2022-07-30T15:44:13.832Z,2.45
2022-07-30T15:47:00.102Z,2.53
2022-07-30T15:49:45.981Z,4.43
2022-07-30T15:52:31.369Z,3.97
2022-07-30T15:55:17.245Z,2.70
2022-07-30T15:58:02.721Z,6.60
2022-07-30T16:00:48.361Z,2.97
2022-07-30T16:03:34.172Z,2.67
2022-07-30T16:06:19.870Z,1.45
2022-07-30T16:09:05.255Z,4.90
2022-07-30T16:11:50.720Z,2.35
2022-07-30T16:14:36.473Z,2.42
2022-07-30T16:17:21.777Z,3.92
2022-07-30T16:20:08.040Z,4.10
2022-07-30T16:22:55.152Z,4.40
2022-07-30T16:25:41.387Z,2.53
2022-07-30T16:28:27.022Z,6.10
2022-07-30T16:31:12.649Z,3.60
2022-07-30T16:33:58.149Z,2.72
2022-07-30T16:36:44.234Z,2.95
2022-07-30T16:39:30.005Z,6.72
2022-07-30T16:42:15.909Z,8.32
2022-07-30T16:45:03.499Z,8.27
2022-07-30T16:47:49.167Z,4.55
2022-07-30T16:50:34.833Z,6.35
2022-07-30T16:53:20.487Z,3.63
2022-07-30T16:56:06.035Z,4.78
2022-07-30T16:58:51.171Z,4.38
2022-07-30T17:01:39.397Z,5.47
2022-07-30T17:04:24.881Z,8.85
2022-07-30T17:07:13.710Z,2.15
2022-07-30T17:09:58.991Z,7.88
2022-07-30T17:12:50.804Z,7.93
2022-07-30T17:15:37.054Z,4.85
2022-07-30T17:18:22.665Z,5.18
2022-07-30T17:21:08.411Z,4.68
2022-07-30T17:23:53.733Z,6.40
2022-07-30T17:26:43.632Z,7.60
2022-07-30T17:29:29.748Z,3.17
2022-07-30T17:32:15.642Z,3.78
2022-07-30T17:35:05.410Z,4.00
2022-07-30T17:37:51.037Z,3.78
2022-07-30T17:40:39.812Z,7.55
2022-07-30T17:43:25.496Z,4.05
2022-07-30T17:46:11.075Z,4.57
2022-07-30T17:48:58.864Z,3.10
2022-07-30T17:51:45.405Z,5.47
2022-07-30T17:54:31.231Z,3.38
2022-07-30T17:57:16.897Z,3.22
2022-07-30T18:00:07.029Z,4.68
2022-07-30T18:02:53.138Z,3.95
2022-07-30T18:05:40.900Z,4.97
2022-07-30T18:08:32.268Z,3.58
2022-07-30T18:11:18.156Z,4.22
2022-07-30T18:14:03.876Z,5.82
2022-07-30T18:16:49.770Z,5.65
2022-07-30T18:19:35.486Z,9.70
2022-07-30T18:22:29.126Z,7.20
2022-07-30T18:25:18.056Z,9.80
2022-07-30T18:28:05.485Z,9.15
2022-07-30T18:30:51.371Z,4.03
2022-07-30T18:33:36.845Z,4.95
2022-07-30T18:36:22.395Z,9.88
2022-07-30T18:39:08.164Z,9.15
2022-07-30T18:41:56.096Z,5.70
2022-07-30T18:44:41.708Z,4.38
2022-07-30T18:47:27.198Z,4.90
2022-07-30T18:50:15.283Z,3.95
2022-07-30T18:53:15.198Z,4.75
2022-07-30T18:56:01.332Z,2.58
2022-07-30T18:58:47.239Z,6.57
2022-07-30T19:01:35.236Z,6.93
2022-07-30T19:04:22.958Z,5.47
2022-07-30T19:07:08.315Z,4.07
2022-07-30T19:10:01.694Z,7.13
2022-07-30T19:12:50.204Z,8.55
2022-07-30T19:15:35.792Z,6.65
2022-07-30T19:18:24.303Z,2.78
2022-07-30T19:21:13.942Z,2.63
2022-07-30T19:23:59.988Z,9.15
2022-07-30T19:26:45.447Z,7.55
2022-07-30T19:29:31.160Z,8.05
2022-07-30T19:32:16.844Z,11.43
2022-07-30T19:35:02.753Z,10.32
2022-07-30T19:37:48.945Z,8.20
2022-07-30T19:40:34.425Z,9.13
2022-07-30T19:43:23.963Z,4.72
2022-07-30T19:46:12.664Z,11.35
2022-07-30T19:49:01.684Z,4.28
2022-07-30T19:52:10.805Z,3.45
2022-07-30T19:54:52.582Z,4.72
2022-07-30T20:00:55.022Z,6.05
2022-07-30T20:03:41.339Z,10.60
2022-07-30T20:06:31.232Z,7.80
2022-07-30T20:09:17.631Z,9.45
2022-07-30T20:12:03.246Z,5.50
2022-07-30T20:14:54.948Z,11.80
2022-07-30T20:17:40.506Z,7.15
2022-07-30T20:20:26.932Z,5.45
2022-07-30T20:23:12.750Z,9.55
2022-07-30T20:25:58.515Z,6.25
2022-07-30T20:28:52.532Z,9.10
2022-07-30T20:31:42.884Z,2.63
2022-07-30T20:34:32.467Z,8.65
2022-07-30T20:37:22.720Z,4.68
2022-07-30T20:40:08.931Z,5.22
2022-07-30T20:42:55.557Z,4.53
2022-07-30T20:45:49.453Z,8.57
2022-07-30T20:48:35.820Z,8.55
2022-07-30T20:51:33.494Z,8.27
2022-07-30T20:54:29.029Z,4.13
2022-07-30T20:57:20.224Z,6.88
2022-07-30T21:00:25.522Z,8.07
2022-07-30T21:03:14.161Z,11.43
2022-07-30T21:05:59.245Z,6.82
2022-07-30T21:08:45.299Z,5.78
2022-07-30T21:11:31.293Z,4.57
2022-07-30T21:14:22.085Z,7.68
2022-07-30T21:17:11.213Z,7.53
2022-07-30T21:19:56.480Z,10.00
2022-07-30T21:22:42.149Z,6.22
2022-07-30T21:25:33.127Z,5.85
2022-07-30T21:28:27.675Z,6.68
2022-07-30T21:31:14.349Z,7.13
2022-07-30T21:34:02.446Z,6.97
2022-07-30T21:36:48.041Z,4.85
2022-07-30T21:39:39.667Z,6.32
2022-07-30T21:42:30.435Z,9.32
2022-07-30T21:45:16.204Z,5.05
2022-07-30T21:48:01.623Z,10.27
2022-07-30T21:50:47.298Z,9.27
2022-07-30T21:53:44.831Z,5.90
2022-07-30T21:56:31.235Z,4.82
2022-07-30T21:59:21.961Z,4.00
2022-07-30T22:02:18.665Z,5.65
2022-07-30T22:05:04.261Z,5.97
2022-07-30T22:07:49.695Z,10.10
2022-07-30T22:10:36.447Z,7.30
2022-07-30T22:13:31.066Z,6.53
2022-07-30T22:16:18.282Z,8.80
2022-07-30T22:19:04.660Z,6.65
2022-07-30T22:22:03.584Z,7.05
2022-07-30T22:24:57.251Z,5.45
2022-07-30T22:27:55.790Z,12.93
2022-07-30T22:30:43.565Z,8.73
2022-07-30T22:33:30.466Z,7.65
2022-07-30T22:36:16.553Z,7.13
2022-07-30T22:39:04.784Z,9.77
2022-07-30T22:41:54.704Z,7.88
2022-07-30T22:44:45.656Z,8.15
2022-07-30T22:47:53.841Z,6.95
2022-07-30T22:50:39.976Z,17.35
2022-07-30T22:54:11.282Z,6.95
2022-07-30T22:56:32.364Z,8.57
2022-07-30T22:59:18.025Z,9.98
2022-07-30T23:05:14.846Z,7.60
2022-07-30T23:08:00.228Z,10.63
2022-07-30T23:10:46.738Z,5.97
2022-07-30T23:12:16.711Z,5.45
2022-07-30T23:13:35.663Z,7.05
2022-07-30T23:16:25.307Z,4.43
2022-07-30T23:19:14.430Z,4.40
2022-07-30T23:22:07.629Z,9.05
2022-07-30T23:24:55.511Z,4.82
2022-07-30T23:27:47.590Z,5.63
2022-07-30T23:30:34.577Z,7.85
2022-07-30T23:33:20.142Z,6.20
2022-07-30T23:36:07.299Z,6.38
2022-07-30T23:38:52.724Z,8.38
2022-07-30T23:41:40.528Z,8.18
2022-07-30T23:44:35.461Z,8.73
2022-07-30T23:47:22.420Z,10.07
2022-07-30T23:53:17.648Z,7.28
2022-07-30T23:56:03.643Z,4.43
2022-07-30T23:58:49.328Z,3.92
